sensor_id;sensor_type;location;lat;lon;timestamp;pressure;altitude;pressure_sealevel;temperature;humidity
58686;BME280;44465;53.206;-6.106;2024-02-15T00:00:44;100227.25;;;20.88;47.10
58686;BME280;44465;53.206;-6.106;2024-02-15T00:03:10;100208.72;;;20.85;47.14
58686;BME280;44465;53.206;-6.106;2024-02-15T00:05:38;100232.38;;;20.91;47.19
58686;BME280;44465;53.206;-6.106;2024-02-15T00:08:04;100235.28;;;20.88;47.27
58686;BME280;44465;53.206;-6.106;2024-02-15T00:10:30;100238.63;;;20.91;47.04
58686;BME280;44465;53.206;-6.106;2024-02-15T00:12:55;100244.34;;;20.85;47.12
58686;BME280;44465;53.206;-6.106;2024-02-15T00:15:21;100241.59;;;20.87;47.20
58686;BME280;44465;53.206;-6.106;2024-02-15T00:17:47;100232.97;;;20.82;47.13
58686;BME280;44465;53.206;-6.106;2024-02-15T00:20:13;100242.72;;;20.83;47.19
58686;BME280;44465;53.206;-6.106;2024-02-15T00:22:39;100254.88;;;20.88;47.10
58686;BME280;44465;53.206;-6.106;2024-02-15T00:25:07;100254.03;;;20.88;47.15
58686;BME280;44465;53.206;-6.106;2024-02-15T00:27:35;100241.00;;;20.82;47.09
58686;BME280;44465;53.206;-6.106;2024-02-15T00:30:02;100249.44;;;20.90;46.91
58686;BME280;44465;53.206;-6.106;2024-02-15T00:32:27;100249.81;;;20.84;46.90
58686;BME280;44465;53.206;-6.106;2024-02-15T00:34:53;100251.22;;;20.89;47.09
58686;BME280;44465;53.206;-6.106;2024-02-15T00:37:19;100253.91;;;20.89;47.09
58686;BME280;44465;53.206;-6.106;2024-02-15T00:39:45;100255.63;;;20.90;46.97
58686;BME280;44465;53.206;-6.106;2024-02-15T00:42:10;100240.06;;;20.83;47.05
58686;BME280;44465;53.206;-6.106;2024-02-15T00:44:36;100241.00;;;20.82;47.16
58686;BME280;44465;53.206;-6.106;2024-02-15T00:47:02;100246.94;;;20.87;47.03
58686;BME280;44465;53.206;-6.106;2024-02-15T00:49:28;100255.75;;;20.89;47.42
58686;BME280;44465;53.206;-6.106;2024-02-15T00:51:53;100236.41;;;20.84;47.31
58686;BME280;44465;53.206;-6.106;2024-02-15T00:54:19;100237.09;;;20.87;47.17
58686;BME280;44465;53.206;-6.106;2024-02-15T00:56:45;100222.69;;;20.75;47.15
58686;BME280;44465;53.206;-6.106;2024-02-15T00:59:10;100230.88;;;20.87;47.16
58686;BME280;44465;53.206;-6.106;2024-02-15T01:01:36;100227.25;;;20.88;47.19
58686;BME280;44465;53.206;-6.106;2024-02-15T01:04:06;100231.72;;;20.87;47.17
58686;BME280;44465;53.206;-6.106;2024-02-15T01:06:31;100238.16;;;20.85;47.21
58686;BME280;44465;53.206;-6.106;2024-02-15T01:08:59;100243.31;;;20.88;47.10
58686;BME280;44465;53.206;-6.106;2024-02-15T01:11:27;100235.28;;;20.88;47.09
58686;BME280;44465;53.206;-6.106;2024-02-15T01:13:54;100224.75;;;20.85;47.35
58686;BME280;44465;53.206;-6.106;2024-02-15T01:16:20;100223.81;;;20.86;47.24
58686;BME280;44465;53.206;-6.106;2024-02-15T01:18:47;100215.19;;;20.81;46.99
58686;BME280;44465;53.206;-6.106;2024-02-15T01:21:13;100226.66;;;20.83;47.16
58686;BME280;44465;53.206;-6.106;2024-02-15T01:23:38;100201.63;;;20.69;47.35
58686;BME280;44465;53.206;-6.106;2024-02-15T01:26:04;100227.44;;;20.85;47.08
58686;BME280;44465;53.206;-6.106;2024-02-15T01:28:30;100233.75;;;20.84;47.32
58686;BME280;44465;53.206;-6.106;2024-02-15T01:30:56;100231.06;;;20.84;47.17
58686;BME280;44465;53.206;-6.106;2024-02-15T01:33:22;100220.00;;;20.75;47.15
58686;BME280;44465;53.206;-6.106;2024-02-15T01:35:48;100232.03;;;20.83;47.05
58686;BME280;44465;53.206;-6.106;2024-02-15T01:38:14;100230.41;;;20.80;47.25
58686;BME280;44465;53.206;-6.106;2024-02-15T01:40:40;100223.16;;;20.82;46.92
58686;BME280;44465;53.206;-6.106;2024-02-15T01:43:05;100233.63;;;20.85;47.18
58686;BME280;44465;53.206;-6.106;2024-02-15T01:45:31;100187.03;;;20.60;47.05
58686;BME280;44465;53.206;-6.106;2024-02-15T01:47:57;100223.81;;;20.86;46.76
58686;BME280;44465;53.206;-6.106;2024-02-15T01:50:24;100209.47;;;20.87;47.12
58686;BME280;44465;53.206;-6.106;2024-02-15T01:52:53;100209.56;;;20.85;47.17
58686;BME280;44465;53.206;-6.106;2024-02-15T01:55:20;100213.09;;;20.86;47.00
58686;BME280;44465;53.206;-6.106;2024-02-15T01:57:48;100203.34;;;20.85;47.31
58686;BME280;44465;53.206;-6.106;2024-02-15T02:00:18;100200.69;;;20.85;47.21
58686;BME280;44465;53.206;-6.106;2024-02-15T02:02:44;100199.06;;;20.82;47.10
58686;BME280;44465;53.206;-6.106;2024-02-15T02:05:10;100201.81;;;20.81;47.11
58686;BME280;44465;53.206;-6.106;2024-02-15T02:07:37;100176.31;;;20.60;47.10
58686;BME280;44465;53.206;-6.106;2024-02-15T02:10:03;100212.22;;;20.85;47.18
58686;BME280;44465;53.206;-6.106;2024-02-15T02:12:29;100186.16;;;20.74;47.11
58686;BME280;44465;53.206;-6.106;2024-02-15T02:14:56;100204.31;;;20.84;47.14
58686;BME280;44465;53.206;-6.106;2024-02-15T02:17:22;100198.31;;;20.80;47.14
58686;BME280;44465;53.206;-6.106;2024-02-15T02:19:47;100193.59;;;20.84;47.30
58686;BME280;44465;53.206;-6.106;2024-02-15T02:22:15;100202.81;;;20.80;47.18
58686;BME280;44465;53.206;-6.106;2024-02-15T02:25:05;100196.56;;;20.79;47.19
58686;BME280;44465;53.206;-6.106;2024-02-15T02:27:35;100204.31;;;20.84;47.17
58686;BME280;44465;53.206;-6.106;2024-02-15T02:30:05;100189.44;;;20.80;47.01
58686;BME280;44465;53.206;-6.106;2024-02-15T02:32:39;100186.94;;;20.76;47.28
58686;BME280;44465;53.206;-6.106;2024-02-15T02:35:05;100205.19;;;20.84;47.21
58686;BME280;44465;53.206;-6.106;2024-02-15T02:37:32;100191.03;;;20.82;47.26
58686;BME280;44465;53.206;-6.106;2024-02-15T02:40:00;100189.44;;;20.80;47.14
58686;BME280;44465;53.206;-6.106;2024-02-15T02:42:26;100196.38;;;20.82;47.24
58686;BME280;44465;53.206;-6.106;2024-02-15T02:44:51;100172.78;;;20.74;47.41
58686;BME280;44465;53.206;-6.106;2024-02-15T02:47:17;100183.00;;;20.82;47.27
58686;BME280;44465;53.206;-6.106;2024-02-15T02:49:43;100162.09;;;20.74;47.22
58686;BME280;44465;53.206;-6.106;2024-02-15T02:52:08;100175.81;;;20.83;47.05
58686;BME280;44465;53.206;-6.106;2024-02-15T02:54:34;100181.94;;;20.85;47.24
58686;BME280;44465;53.206;-6.106;2024-02-15T02:57:00;100169.72;;;20.81;47.32
58686;BME280;44465;53.206;-6.106;2024-02-15T02:59:25;100174.69;;;20.87;47.28
58686;BME280;44465;53.206;-6.106;2024-02-15T03:01:51;100166.84;;;20.84;47.31
58686;BME280;44465;53.206;-6.106;2024-02-15T03:04:16;100163.22;;;20.85;47.16
58686;BME280;44465;53.206;-6.106;2024-02-15T03:06:45;100162.38;;;20.84;47.48
58686;BME280;44465;53.206;-6.106;2024-02-15T03:09:12;100165.88;;;20.85;47.14
58686;BME280;44465;53.206;-6.106;2024-02-15T03:11:40;100134.38;;;20.75;47.30
58686;BME280;44465;53.206;-6.106;2024-02-15T03:14:05;100150.97;;;20.81;47.23
58686;BME280;44465;53.206;-6.106;2024-02-15T03:16:32;100140.09;;;20.84;47.24
58686;BME280;44465;53.206;-6.106;2024-02-15T03:18:57;100121.53;;;20.81;47.03
58686;BME280;44465;53.206;-6.106;2024-02-15T03:21:23;100124.22;;;20.81;47.13
58686;BME280;44465;53.206;-6.106;2024-02-15T03:23:48;100127.47;;;20.86;47.13
58686;BME280;44465;53.206;-6.106;2024-02-15T03:26:14;100124.91;;;20.84;47.30
58686;BME280;44465;53.206;-6.106;2024-02-15T03:28:40;100109.34;;;20.76;47.30
58686;BME280;44465;53.206;-6.106;2024-02-15T03:31:05;100116.94;;;20.83;47.19
58686;BME280;44465;53.206;-6.106;2024-02-15T03:33:31;100116.75;;;20.86;47.56
58686;BME280;44465;53.206;-6.106;2024-02-15T03:36:00;100107.97;;;20.84;47.49
58686;BME280;44465;53.206;-6.106;2024-02-15T03:38:27;100105.28;;;20.84;47.31
58686;BME280;44465;53.206;-6.106;2024-02-15T03:40:57;100108.84;;;20.84;47.30
58686;BME280;44465;53.206;-6.106;2024-02-15T03:43:23;100091.44;;;20.77;47.34
58686;BME280;44465;53.206;-6.106;2024-02-15T03:45:50;100095.47;;;20.84;47.17
58686;BME280;44465;53.206;-6.106;2024-02-15T03:48:16;100099.94;;;20.84;47.43
58686;BME280;44465;53.206;-6.106;2024-02-15T03:50:42;100089.44;;;20.81;47.28
58686;BME280;44465;53.206;-6.106;2024-02-15T03:53:12;100098.97;;;20.85;47.56
58686;BME280;44465;53.206;-6.106;2024-02-15T03:55:39;100097.16;;;20.85;47.25
58686;BME280;44465;53.206;-6.106;2024-02-15T03:58:05;100091.81;;;20.85;47.14
58686;BME280;44465;53.206;-6.106;2024-02-15T04:00:34;100090.00;;;20.86;47.34
58686;BME280;44465;53.206;-6.106;2024-02-15T04:02:59;100076.63;;;20.86;47.23
58686;BME280;44465;53.206;-6.106;2024-02-15T04:05:26;100064.19;;;20.85;47.12
58686;BME280;44465;53.206;-6.106;2024-02-15T04:07:51;100080.16;;;20.86;47.24
58686;BME280;44465;53.206;-6.106;2024-02-15T04:10:19;100059.34;;;20.77;47.47
58686;BME280;44465;53.206;-6.106;2024-02-15T04:12:44;100073.00;;;20.87;47.07
58686;BME280;44465;53.206;-6.106;2024-02-15T04:15:10;100060.75;;;20.83;47.30
58686;BME280;44465;53.206;-6.106;2024-02-15T04:17:42;100053.50;;;20.85;47.09
58686;BME280;44465;53.206;-6.106;2024-02-15T04:20:10;100046.31;;;20.85;47.25
58686;BME280;44465;53.206;-6.106;2024-02-15T04:22:37;100045.47;;;20.85;47.10
58686;BME280;44465;53.206;-6.106;2024-02-15T04:25:06;100037.44;;;20.85;47.16
58686;BME280;44465;53.206;-6.106;2024-02-15T04:27:35;100049.97;;;20.84;47.39
58686;BME280;44465;53.206;-6.106;2024-02-15T04:30:04;100047.19;;;20.86;47.02
58686;BME280;44465;53.206;-6.106;2024-02-15T04:32:29;100047.19;;;20.86;47.35
58686;BME280;44465;53.206;-6.106;2024-02-15T04:34:59;100029.59;;;20.82;47.12
58686;BME280;44465;53.206;-6.106;2024-02-15T04:37:25;100004.25;;;20.60;47.46
58686;BME280;44465;53.206;-6.106;2024-02-15T04:39:52;100040.97;;;20.85;47.38
58686;BME280;44465;53.206;-6.106;2024-02-15T04:42:17;100049.09;;;20.84;47.38
58686;BME280;44465;53.206;-6.106;2024-02-15T04:44:44;100042.69;;;20.86;47.17
58686;BME280;44465;53.206;-6.106;2024-02-15T04:47:09;100029.41;;;20.85;47.23
58686;BME280;44465;53.206;-6.106;2024-02-15T04:49:36;100029.22;;;20.88;47.35
58686;BME280;44465;53.206;-6.106;2024-02-15T04:52:05;100022.34;;;20.84;47.19
58686;BME280;44465;53.206;-6.106;2024-02-15T04:54:32;100007.75;;;20.75;47.18
58686;BME280;44465;53.206;-6.106;2024-02-15T04:56:58;100005.16;;;20.73;47.39
58686;BME280;44465;53.206;-6.106;2024-02-15T04:59:23;100017.19;;;20.81;47.24
58686;BME280;44465;53.206;-6.106;2024-02-15T05:01:54;100026.72;;;20.85;47.27
58686;BME280;44465;53.206;-6.106;2024-02-15T05:04:21;100017.88;;;20.84;47.17
58686;BME280;44465;53.206;-6.106;2024-02-15T05:06:48;99997.91;;;20.75;47.38
58686;BME280;44465;53.206;-6.106;2024-02-15T05:09:13;100005.22;;;20.86;47.31
58686;BME280;44465;53.206;-6.106;2024-02-15T05:11:42;100008.00;;;20.85;47.39
58686;BME280;44465;53.206;-6.106;2024-02-15T05:14:15;99976.69;;;20.72;47.32
58686;BME280;44465;53.206;-6.106;2024-02-15T05:16:49;100009.72;;;20.86;47.42
58686;BME280;44465;53.206;-6.106;2024-02-15T05:19:15;99999.78;;;20.88;47.06
58686;BME280;44465;53.206;-6.106;2024-02-15T05:21:41;100002.53;;;20.86;47.43
58686;BME280;44465;53.206;-6.106;2024-02-15T05:24:13;99996.44;;;20.84;47.45
58686;BME280;44465;53.206;-6.106;2024-02-15T05:26:43;99998.06;;;20.87;47.13
58686;BME280;44465;53.206;-6.106;2024-02-15T05:29:12;99974.78;;;20.74;47.24
58686;BME280;44465;53.206;-6.106;2024-02-15T05:31:38;99986.06;;;20.80;47.40
58686;BME280;44465;53.206;-6.106;2024-02-15T05:34:07;99999.84;;;20.86;47.38
58686;BME280;44465;53.206;-6.106;2024-02-15T05:36:34;99972.88;;;20.76;47.14
58686;BME280;44465;53.206;-6.106;2024-02-15T05:39:00;99993.84;;;20.83;47.47
58686;BME280;44465;53.206;-6.106;2024-02-15T05:41:25;99985.06;;;20.81;47.01
58686;BME280;44465;53.206;-6.106;2024-02-15T05:43:51;99983.38;;;20.80;47.27
58686;BME280;44465;53.206;-6.106;2024-02-15T05:46:20;99994.50;;;20.86;47.22
58686;BME280;44465;53.206;-6.106;2024-02-15T05:48:48;99960.56;;;20.74;47.50
58686;BME280;44465;53.206;-6.106;2024-02-15T05:51:15;99983.72;;;20.88;47.33
58686;BME280;44465;53.206;-6.106;2024-02-15T05:53:41;99987.34;;;20.87;47.14
58686;BME280;44465;53.206;-6.106;2024-02-15T05:56:08;99976.84;;;20.84;47.24
58686;BME280;44465;53.206;-6.106;2024-02-15T05:58:34;99959.63;;;20.88;47.25
58686;BME280;44465;53.206;-6.106;2024-02-15T06:01:01;99952.75;;;20.84;47.44
58686;BME280;44465;53.206;-6.106;2024-02-15T06:03:31;99967.66;;;20.88;47.14
58686;BME280;44465;53.206;-6.106;2024-02-15T06:06:01;99966.03;;;20.85;47.38
58686;BME280;44465;53.206;-6.106;2024-02-15T06:08:34;99964.22;;;20.86;47.41
58686;BME280;44465;53.206;-6.106;2024-02-15T06:11:00;99960.78;;;20.84;47.14
58686;BME280;44465;53.206;-6.106;2024-02-15T06:13:27;99946.34;;;20.86;47.46
58686;BME280;44465;53.206;-6.106;2024-02-15T06:15:53;99942.94;;;20.84;47.22
58686;BME280;44465;53.206;-6.106;2024-02-15T06:18:20;99934.78;;;20.86;47.40
58686;BME280;44465;53.206;-6.106;2024-02-15T06:20:56;99943.78;;;20.85;47.32
58686;BME280;44465;53.206;-6.106;2024-02-15T06:23:28;99935.88;;;20.83;47.25
58686;BME280;44465;53.206;-6.106;2024-02-15T06:25:55;99952.56;;;20.87;47.27
58686;BME280;44465;53.206;-6.106;2024-02-15T06:28:21;99957.91;;;20.87;47.40
58686;BME280;44465;53.206;-6.106;2024-02-15T06:31:07;99947.28;;;20.85;47.49
58686;BME280;44465;53.206;-6.106;2024-02-15T06:33:51;99932.63;;;20.78;47.45
58686;BME280;44465;53.206;-6.106;2024-02-15T06:36:56;99945.50;;;20.86;47.36
58686;BME280;44465;53.206;-6.106;2024-02-15T06:39:40;99919.44;;;20.75;47.49
58686;BME280;44465;53.206;-6.106;2024-02-15T06:42:15;99938.44;;;20.85;47.35
58686;BME280;44465;53.206;-6.106;2024-02-15T06:44:44;99944.72;;;20.84;47.38
58686;BME280;44465;53.206;-6.106;2024-02-15T06:47:10;99940.34;;;20.83;47.24
58686;BME280;44465;53.206;-6.106;2024-02-15T06:49:39;99940.16;;;20.86;47.21
58686;BME280;44465;53.206;-6.106;2024-02-15T06:52:09;99934.78;;;20.86;47.18
58686;BME280;44465;53.206;-6.106;2024-02-15T06:54:40;99945.50;;;20.86;47.36
58686;BME280;44465;53.206;-6.106;2024-02-15T06:57:06;99933.50;;;20.79;47.39
58686;BME280;44465;53.206;-6.106;2024-02-15T06:59:32;99910.97;;;20.68;47.34
58686;BME280;44465;53.206;-6.106;2024-02-15T07:01:59;99931.56;;;20.81;47.39
58686;BME280;44465;53.206;-6.106;2024-02-15T07:04:24;99928.78;;;20.82;47.29
58686;BME280;44465;53.206;-6.106;2024-02-15T07:06:53;99938.22;;;20.88;47.47
58686;BME280;44465;53.206;-6.106;2024-02-15T07:09:20;99932.88;;;20.88;47.51
58686;BME280;44465;53.206;-6.106;2024-02-15T07:11:48;99916.19;;;20.84;47.12
58686;BME280;44465;53.206;-6.106;2024-02-15T07:14:14;99908.47;;;20.80;47.29
58686;BME280;44465;53.206;-6.106;2024-02-15T07:16:44;99906.31;;;20.85;47.32
58686;BME280;44465;53.206;-6.106;2024-02-15T07:19:10;99915.50;;;20.81;47.16
58686;BME280;44465;53.206;-6.106;2024-02-15T07:21:36;99921.09;;;20.77;47.35
58686;BME280;44465;53.206;-6.106;2024-02-15T07:24:02;99922.56;;;20.82;47.30
58686;BME280;44465;53.206;-6.106;2024-02-15T07:26:30;99924.28;;;20.83;47.36
58686;BME280;44465;53.206;-6.106;2024-02-15T07:28:55;99918.94;;;20.83;47.43
58686;BME280;44465;53.206;-6.106;2024-02-15T07:31:23;99902.44;;;20.76;47.40
58686;BME280;44465;53.206;-6.106;2024-02-15T07:33:50;99903.31;;;20.76;47.20
58686;BME280;44465;53.206;-6.106;2024-02-15T07:36:23;99919.50;;;20.88;47.30
58686;BME280;44465;53.206;-6.106;2024-02-15T07:38:50;99915.94;;;20.87;47.32
58686;BME280;44465;53.206;-6.106;2024-02-15T07:41:17;99914.34;;;20.85;47.10
58686;BME280;44465;53.206;-6.106;2024-02-15T07:43:45;99911.03;;;20.81;47.23
58686;BME280;44465;53.206;-6.106;2024-02-15T07:46:15;99924.84;;;20.88;47.39
58686;BME280;44465;53.206;-6.106;2024-02-15T07:48:44;99929.31;;;20.87;47.28
58686;BME280;44465;53.206;-6.106;2024-02-15T07:51:17;99926.00;;;20.84;47.16
58686;BME280;44465;53.206;-6.106;2024-02-15T07:53:46;99928.47;;;20.87;47.12
58686;BME280;44465;53.206;-6.106;2024-02-15T07:56:14;99924.28;;;20.83;47.24
58686;BME280;44465;53.206;-6.106;2024-02-15T07:58:47;99928.69;;;20.84;47.32
58686;BME280;44465;53.206;-6.106;2024-02-15T08:01:14;99907.06;;;20.74;47.05
58686;BME280;44465;53.206;-6.106;2024-02-15T08:03:40;99925.88;;;20.85;47.21
58686;BME280;44465;53.206;-6.106;2024-02-15T08:06:13;99916.50;;;20.80;47.53
58686;BME280;44465;53.206;-6.106;2024-02-15T08:08:44;99910.56;;;20.74;47.29
58686;BME280;44465;53.206;-6.106;2024-02-15T08:11:12;99925.34;;;20.80;47.32
58686;BME280;44465;53.206;-6.106;2024-02-15T08:16:13;99902.00;;;20.69;47.33
58686;BME280;44465;53.206;-6.106;2024-02-15T08:18:44;99932.88;;;20.88;47.40
58686;BME280;44465;53.206;-6.106;2024-02-15T08:21:11;99931.25;;;20.85;47.38
58686;BME280;44465;53.206;-6.106;2024-02-15T08:23:37;99929.25;;;20.89;47.31
58686;BME280;44465;53.206;-6.106;2024-02-15T08:26:03;99914.66;;;20.80;47.34
58686;BME280;44465;53.206;-6.106;2024-02-15T08:28:28;99911.13;;;20.80;47.33
58686;BME280;44465;53.206;-6.106;2024-02-15T08:30:55;99878.31;;;20.63;47.07
58686;BME280;44465;53.206;-6.106;2024-02-15T08:33:21;99918.72;;;20.86;47.29
58686;BME280;44465;53.206;-6.106;2024-02-15T08:35:48;99908.47;;;20.80;47.29
58686;BME280;44465;53.206;-6.106;2024-02-15T08:38:14;99917.03;;;20.85;47.17
58686;BME280;44465;53.206;-6.106;2024-02-15T08:40:40;99912.75;;;20.82;47.32
58686;BME280;44465;53.206;-6.106;2024-02-15T08:43:05;99888.81;;;20.66;47.47
58686;BME280;44465;53.206;-6.106;2024-02-15T08:45:31;99913.81;;;20.80;47.15
58686;BME280;44465;53.206;-6.106;2024-02-15T08:47:57;99923.13;;;20.87;47.09
58686;BME280;44465;53.206;-6.106;2024-02-15T08:50:22;99913.59;;;20.83;47.54
58686;BME280;44465;53.206;-6.106;2024-02-15T08:52:49;99918.53;;;20.89;47.28
58686;BME280;44465;53.206;-6.106;2024-02-15T08:55:15;99911.47;;;20.88;47.29
58686;BME280;44465;53.206;-6.106;2024-02-15T08:57:42;99925.81;;;20.87;47.54
58686;BME280;44465;53.206;-6.106;2024-02-15T09:00:10;99931.91;;;20.89;47.22
58686;BME280;44465;53.206;-6.106;2024-02-15T09:02:47;99915.09;;;20.87;47.15
58686;BME280;44465;53.206;-6.106;2024-02-15T09:05:14;99915.09;;;20.87;47.30
58686;BME280;44465;53.206;-6.106;2024-02-15T09:07:44;99922.38;;;20.85;47.38
58686;BME280;44465;53.206;-6.106;2024-02-15T09:10:13;99922.16;;;20.88;47.27
58686;BME280;44465;53.206;-6.106;2024-02-15T09:12:40;99930.19;;;20.88;47.22
58686;BME280;44465;53.206;-6.106;2024-02-15T09:15:09;99927.59;;;20.86;47.21
58686;BME280;44465;53.206;-6.106;2024-02-15T09:17:38;99914.84;;;20.77;47.32
58686;BME280;44465;53.206;-6.106;2024-02-15T09:20:11;99896.63;;;20.69;47.35
58686;BME280;44465;53.206;-6.106;2024-02-15T09:22:52;99897.09;;;20.76;47.44
58686;BME280;44465;53.206;-6.106;2024-02-15T09:25:20;99901.59;;;20.75;47.24
58686;BME280;44465;53.206;-6.106;2024-02-15T09:27:48;99932.88;;;20.88;47.47
58686;BME280;44465;53.206;-6.106;2024-02-15T09:30:15;99927.53;;;20.88;47.35
58686;BME280;44465;53.206;-6.106;2024-02-15T09:32:41;99922.16;;;20.88;47.49
58686;BME280;44465;53.206;-6.106;2024-02-15T09:35:11;99910.91;;;20.83;47.32
58686;BME280;44465;53.206;-6.106;2024-02-15T09:37:42;99918.72;;;20.86;47.52
58686;BME280;44465;53.206;-6.106;2024-02-15T09:40:10;99917.78;;;20.87;47.40
58686;BME280;44465;53.206;-6.106;2024-02-15T09:42:37;99920.34;;;20.88;47.34
58686;BME280;44465;53.206;-6.106;2024-02-15T09:45:08;99887.84;;;20.67;47.55
58686;BME280;44465;53.206;-6.106;2024-02-15T09:47:38;99917.03;;;20.85;47.52
58686;BME280;44465;53.206;-6.106;2024-02-15T09:50:09;99922.25;;;20.86;47.33
58686;BME280;44465;53.206;-6.106;2024-02-15T09:52:52;99926.56;;;20.89;47.63
58686;BME280;44465;53.206;-6.106;2024-02-15T09:55:20;99925.88;;;20.85;47.46
58686;BME280;44465;53.206;-6.106;2024-02-15T09:57:49;99931.91;;;20.89;47.58
58686;BME280;44465;53.206;-6.106;2024-02-15T10:00:16;99942.38;;;20.92;47.48
58686;BME280;44465;53.206;-6.106;2024-02-15T10:02:43;99935.44;;;20.89;47.47
58686;BME280;44465;53.206;-6.106;2024-02-15T10:05:12;99937.34;;;20.87;47.32
58686;BME280;44465;53.206;-6.106;2024-02-15T10:07:39;99941.66;;;20.90;47.06
58686;BME280;44465;53.206;-6.106;2024-02-15T10:10:23;99938.97;;;20.90;47.32
58686;BME280;44465;53.206;-6.106;2024-02-15T10:12:50;99945.06;;;20.92;47.40
58686;BME280;44465;53.206;-6.106;2024-02-15T10:15:31;99952.13;;;20.93;47.68
58686;BME280;44465;53.206;-6.106;2024-02-15T10:17:58;99942.63;;;20.89;47.47
58686;BME280;44465;53.206;-6.106;2024-02-15T10:20:26;99938.44;;;20.85;47.64
58686;BME280;44465;53.206;-6.106;2024-02-15T10:22:58;99951.28;;;20.92;47.54
58686;BME280;44465;53.206;-6.106;2024-02-15T10:25:35;99950.66;;;20.89;47.55
58686;BME280;44465;53.206;-6.106;2024-02-15T10:28:05;99957.91;;;20.87;47.69
58686;BME280;44465;53.206;-6.106;2024-02-15T10:30:34;99944.72;;;20.84;47.76
58686;BME280;44465;53.206;-6.106;2024-02-15T10:33:00;99951.38;;;20.91;47.53
58686;BME280;44465;53.206;-6.106;2024-02-15T10:35:25;99934.16;;;20.82;47.42
58686;BME280;44465;53.206;-6.106;2024-02-15T10:37:51;99962.84;;;20.93;47.52
58686;BME280;44465;53.206;-6.106;2024-02-15T10:40:20;99965.50;;;20.93;47.59
58686;BME280;44465;53.206;-6.106;2024-02-15T10:42:51;99951.59;;;20.88;47.69
58686;BME280;44465;53.206;-6.106;2024-02-15T10:45:17;99976.03;;;20.96;47.47
58686;BME280;44465;53.206;-6.106;2024-02-15T10:47:44;99971.63;;;20.95;47.28
58686;BME280;44465;53.206;-6.106;2024-02-15T10:50:10;99972.06;;;20.89;47.40
58686;BME280;44465;53.206;-6.106;2024-02-15T10:52:39;99980.72;;;20.92;47.67
58686;BME280;44465;53.206;-6.106;2024-02-15T10:55:09;99989.59;;;20.93;47.73
58686;BME280;44465;53.206;-6.106;2024-02-15T10:57:41;99980.63;;;20.94;47.67
58686;BME280;44465;53.206;-6.106;2024-02-15T11:00:11;99965.75;;;20.90;47.56
58686;BME280;44465;53.206;-6.106;2024-02-15T11:03:02;99974.41;;;20.94;47.73
58686;BME280;44465;53.206;-6.106;2024-02-15T11:05:37;99969.06;;;20.94;47.80
58686;BME280;44465;53.206;-6.106;2024-02-15T11:08:08;99962.50;;;20.85;47.68
58686;BME280;44465;53.206;-6.106;2024-02-15T11:10:36;99965.75;;;20.90;47.66
58686;BME280;44465;53.206;-6.106;2024-02-15T11:13:02;99966.47;;;20.92;47.91
58686;BME280;44465;53.206;-6.106;2024-02-15T11:15:43;99982.97;;;20.99;47.68
58686;BME280;44465;53.206;-6.106;2024-02-15T11:18:10;99983.84;;;20.99;47.77
58686;BME280;44465;53.206;-6.106;2024-02-15T11:23:02;99918.69;;;20.73;47.85
58686;BME280;44465;53.206;-6.106;2024-02-15T11:25:38;99961.13;;;20.92;47.54
58686;BME280;44465;53.206;-6.106;2024-02-15T11:30:51;99976.47;;;21.03;47.47
58686;BME280;44465;53.206;-6.106;2024-02-15T11:33:44;99961.13;;;20.92;47.67
58686;BME280;44465;53.206;-6.106;2024-02-15T11:36:10;99978.38;;;21.01;47.57
58686;BME280;44465;53.206;-6.106;2024-02-15T11:38:40;99981.91;;;21.01;47.96
58686;BME280;44465;53.206;-6.106;2024-02-15T11:41:07;99977.41;;;21.02;47.78
58686;BME280;44465;53.206;-6.106;2024-02-15T11:46:08;99966.59;;;21.03;47.83
58686;BME280;44465;53.206;-6.106;2024-02-15T11:48:36;99969.28;;;21.03;47.53
58686;BME280;44465;53.206;-6.106;2024-02-15T11:51:05;99952.03;;;20.95;47.72
58686;BME280;44465;53.206;-6.106;2024-02-15T11:53:35;99958.81;;;21.00;48.02
58686;BME280;44465;53.206;-6.106;2024-02-15T11:56:00;99965.63;;;21.04;47.74
58686;BME280;44465;53.206;-6.106;2024-02-15T11:58:27;99964.69;;;21.05;47.80
58686;BME280;44465;53.206;-6.106;2024-02-15T12:01:11;99963.94;;;21.03;47.57
58686;BME280;44465;53.206;-6.106;2024-02-15T12:03:55;99963.84;;;21.05;47.83
58686;BME280;44465;53.206;-6.106;2024-02-15T12:06:40;99967.34;;;21.05;47.90
58686;BME280;44465;53.206;-6.106;2024-02-15T12:09:24;99962.22;;;21.02;47.72
58686;BME280;44465;53.206;-6.106;2024-02-15T12:12:10;99969.19;;;21.05;47.85
58686;BME280;44465;53.206;-6.106;2024-02-15T12:15:02;99971.75;;;21.06;47.92
58686;BME280;44465;53.206;-6.106;2024-02-15T12:17:47;99976.16;;;21.07;47.74
58686;BME280;44465;53.206;-6.106;2024-02-15T12:20:31;99974.44;;;21.06;47.95
58686;BME280;44465;53.206;-6.106;2024-02-15T12:22:57;99974.44;;;21.06;47.70
58686;BME280;44465;53.206;-6.106;2024-02-15T12:25:26;99960.28;;;21.04;47.73
58686;BME280;44465;53.206;-6.106;2024-02-15T12:27:54;99951.94;;;21.09;47.70
58686;BME280;44465;53.206;-6.106;2024-02-15T12:30:20;99964.47;;;21.08;47.95
58686;BME280;44465;53.206;-6.106;2024-02-15T12:32:47;99958.16;;;21.10;47.73
58686;BME280;44465;53.206;-6.106;2024-02-15T12:35:14;99967.16;;;21.08;47.95
58686;BME280;44465;53.206;-6.106;2024-02-15T12:37:45;99966.28;;;21.08;47.91
58686;BME280;44465;53.206;-6.106;2024-02-15T12:40:12;99923.63;;;20.79;47.55
58686;BME280;44465;53.206;-6.106;2024-02-15T12:42:42;99969.72;;;21.10;47.89
58686;BME280;44465;53.206;-6.106;2024-02-15T12:45:17;99946.78;;;20.93;47.63
58686;BME280;44465;53.206;-6.106;2024-02-15T12:47:48;99974.44;;;21.06;47.85
58686;BME280;44465;53.206;-6.106;2024-02-15T12:50:17;99975.28;;;21.07;47.56
58686;BME280;44465;53.206;-6.106;2024-02-15T12:52:46;99983.00;;;21.12;47.73
58686;BME280;44465;53.206;-6.106;2024-02-15T12:57:47;99972.84;;;21.04;47.85
58686;BME280;44465;53.206;-6.106;2024-02-15T13:00:18;99990.94;;;21.13;47.79
58686;BME280;44465;53.206;-6.106;2024-02-15T13:02:48;99971.44;;;20.98;47.60
58686;BME280;44465;53.206;-6.106;2024-02-15T13:05:15;99983.63;;;21.02;47.73